Plum, Texas
Current Conditions -  °F | °C
As of 3:50 PM on Thursday 27 Nov 2014 (Local Time) from K3T5 Reporting Station
Clear Clear  
Wind Chill: 19°   Ceiling: Unl
Heat Index: 19°   Visibility: 10mi
Dew Point:   Wind: 3mph
Humidity: 30%   Direction: 100°E
Pressure: 30.39"   Gusts: NA
Location:  29.93°N, 96.97°W
Report Text: K3T5 272150Z AUTO 10003KT 10SM CLR 19/01 A3039 RMK AO2 T01900012
Loading
Personal Weather Stations






























Interactive Weather Map New forecast layout! Learn more

10-Day Weather Forecast

Advertisements
Track Severe Weather on mobile